Houn Maru — JG5489 — position and weather

sailwx.info

Track history (hours):
 
Tides and Currents Weather Stations Pressure Air Temp Water Temp Dewpoint Dewpoint Depression Visibility Wind Speed Wind Dir Waves Ship Positions

Houn Maru

Last reported at 2017-Apr-28 16:26 UTC. Time now 2017-Apr-28 18:05 UTC.
Position N 34°32' E 135°20'.

Length 91 m; draft 4.5 m.

Type: Tanker. MMSI: 431101172.

Date/timePositionNaut miles runAvg speedWind from/ knotsBaromVisibWave heightAir tempDewpointWater temp
2017-Apr-28 16:26N 34°32' E 135°20'0 0.1
2017-Apr-28 15:56N 34°32' E 135°20'0 0.0
2017-Apr-28 15:14N 34°32' E 135°20'0 0.0
2017-Apr-28 14:50N 34°32' E 135°20'0 0.0
2017-Apr-28 13:56N 34°32' E 135°20'0 0.0
2017-Apr-28 13:20N 34°32' E 135°20'0 0.0
2017-Apr-28 12:56N 34°32' E 135°20'0 0.0
2017-Apr-28 11:56N 34°32' E 135°20'0 0.0
2017-Apr-28 11:26N 34°32' E 135°20'0 0.0
2017-Apr-28 10:50N 34°32' E 135°20'0 0.0
2017-Apr-28 10:26N 34°32' E 135°20'0 0.1
2017-Apr-28 09:56N 34°32' E 135°20'3 6.8
2017-Apr-28 09:30N 34°30' E 135°17'612.0
2017-Apr-28 09:00N 34°27' E 135°11'3 6.0
2017-Apr-28 08:30N 34°25' E 135°14'0 0.0
2017-Apr-28 03:18N 34°25' E 135°14'0 0.2
2017-Apr-28 02:58N 34°25' E 135°14'2 4.3
2017-Apr-28 02:29N 34°23' E 135°13'0 0.1
2017-Apr-28 01:49N 34°23' E 135°13'0 0.1
2017-Apr-28 01:28N 34°23' E 135°13'0 0.0
2017-Apr-27 23:58N 34°23' E 135°13'0 0.0
2017-Apr-27 23:04N 34°23' E 135°13'0 0.0
2017-Apr-27 22:55N 34°23' E 135°13'0 0.0
2017-Apr-27 22:28N 34°23' E 135°13'0 0.1
2017-Apr-27 21:34N 34°23' E 135°13'0 0.0
2017-Apr-27 21:10N 34°23' E 135°13'0 0.2
2017-Apr-27 20:52N 34°23' E 135°12'0 0.0
2017-Apr-27 20:28N 34°23' E 135°12'0 0.0
2017-Apr-27 19:58N 34°23' E 135°12'0 0.0
2017-Apr-27 19:22N 34°23' E 135°12'0 0.0
2017-Apr-27 18:58N 34°23' E 135°12'0 0.0
2017-Apr-27 18:28N 34°23' E 135°12'0 0.0
2017-Apr-27 17:58N 34°23' E 135°12'0 0.0
2017-Apr-27 17:28N 34°23' E 135°12'0 0.0
2017-Apr-27 16:46N 34°23' E 135°12'0 0.0
2017-Apr-27 15:04N 34°23' E 135°12'0 0.0
2017-Apr-27 14:52N 34°23' E 135°12'2 2.2
2017-Apr-27 13:59N 34°25' E 135°11'611.5
2017-Apr-27 13:30N 34°29' E 135°07'510.4
2017-Apr-27 13:00N 34°34' E 135°04'4 8.0
2017-Apr-27 12:30N 34°37' E 135°01'5 0.2
2017-Apr-26 07:53N 34°36' E 134°54'612.1
2017-Apr-26 07:23N 34°37' E 135°01'4 9.6
2017-Apr-26 07:00N 34°35' E 135°05'510.4
2017-Apr-26 06:30N 34°30' E 135°08'611.9
2017-Apr-26 06:01N 34°25' E 135°11'3 5.0
2017-Apr-26 05:30N 34°25' E 135°14'0 0.0
2017-Apr-26 00:11N 34°25' E 135°14'0 0.6
2017-Apr-25 23:57N 34°25' E 135°14'2 4.1
2017-Apr-25 23:28N 34°23' E 135°13'0 0.0
2017-Apr-25 22:32N 34°23' E 135°13'0 0.0
2017-Apr-25 22:08N 34°23' E 135°13'0 0.0
2017-Apr-25 21:59N 34°23' E 135°13'0 0.0
2017-Apr-25 21:26N 34°23' E 135°13'0 0.0
2017-Apr-25 20:56N 34°23' E 135°13'0 0.0
2017-Apr-25 20:29N 34°23' E 135°13'0 0.1
2017-Apr-25 19:56N 34°23' E 135°12'0 0.0
2017-Apr-25 19:20N 34°23' E 135°12'0 0.0
2017-Apr-25 18:56N 34°23' E 135°12'0 0.0
2017-Apr-25 18:25N 34°23' E 135°12'0 0.1
2017-Apr-25 17:38N 34°23' E 135°12'0 0.1
2017-Apr-25 17:08N 34°23' E 135°13'0 0.0
2017-Apr-25 15:49N 34°23' E 135°12'0 0.0
2017-Apr-25 15:25N 34°23' E 135°12'0 0.2
2017-Apr-25 14:58N 34°23' E 135°13'4 8.1
2017-Apr-25 14:30N 34°26' E 135°10'1111.5
2017-Apr-25 13:30N 34°36' E 135°02'8 0.3
2017-Apr-24 08:57N 34°35' E 134°53'714.4
2017-Apr-24 08:29N 34°37' E 135°01'612.7
2017-Apr-24 08:00N 34°33' E 135°06'612.8
2017-Apr-24 07:30N 34°27' E 135°09'5 8.9
2017-Apr-24 06:59N 34°25' E 135°14'0 0.0
2017-Apr-24 01:44N 34°25' E 135°14'0 1.0
2017-Apr-24 01:31N 34°25' E 135°14'2 3.7
2017-Apr-24 01:01N 34°23' E 135°13'0 0.1
2017-Apr-23 23:28N 34°23' E 135°12'0 0.0
2017-Apr-23 22:43N 34°23' E 135°12'0 0.0
2017-Apr-23 22:22N 34°23' E 135°12'0 0.0
2017-Apr-23 21:55N 34°23' E 135°12'0 0.0
2017-Apr-23 21:25N 34°23' E 135°12'0 0.0
2017-Apr-23 20:49N 34°23' E 135°12'0 0.0
2017-Apr-23 20:28N 34°23' E 135°12'0 0.0
2017-Apr-23 19:58N 34°23' E 135°12'0 0.0
2017-Apr-23 19:28N 34°23' E 135°12'0 0.0
2017-Apr-23 18:31N 34°23' E 135°12'0 0.0
2017-Apr-23 18:25N 34°23' E 135°12'0 0.0
2017-Apr-23 17:49N 34°23' E 135°12'0 0.0
2017-Apr-23 17:19N 34°23' E 135°12'0 0.0
2017-Apr-23 16:49N 34°23' E 135°12'0 0.0
2017-Apr-23 15:46N 34°23' E 135°12'0 0.0
2017-Apr-23 15:19N 34°23' E 135°12'1 3.0
2017-Apr-23 15:00N 34°24' E 135°12'1211.7
2017-Apr-23 14:00N 34°34' E 135°04'612.1
2017-Apr-23 13:28N 34°36' E 134°57'2 0.1
2017-Apr-22 01:55N 34°36' E 134°55'510.6
2017-Apr-22 01:27N 34°37' E 135°01'4 9.8
2017-Apr-22 01:00N 34°36' E 135°06'612.8
2017-Apr-22 00:30N 34°36' E 135°14'612.8
2017-Apr-22 00:00N 34°37' E 135°21'5 9.6
2017-Apr-21 23:29N 34°35' E 135°27'0 0.0
2017-Apr-21 07:22N 34°35' E 135°27'3 8.8
2017-Apr-21 07:00N 34°36' E 135°23'612.4
2017-Apr-21 06:30N 34°32' E 135°18'612.5
2017-Apr-21 06:00N 34°28' E 135°13'3 5.0
2017-Apr-21 05:25N 34°25' E 135°14'0 0.0
2017-Apr-21 00:13N 34°25' E 135°14'0 0.8
2017-Apr-20 23:57N 34°25' E 135°14'2 4.6
2017-Apr-20 23:30N 34°23' E 135°13'0 0.1
2017-Apr-20 22:52N 34°23' E 135°12'0 0.0
2017-Apr-20 22:25N 34°23' E 135°12'0 0.0
2017-Apr-20 21:58N 34°23' E 135°12'0 0.1
2017-Apr-20 21:22N 34°23' E 135°12'0 0.0
2017-Apr-20 20:58N 34°23' E 135°12'0 0.0
2017-Apr-20 19:49N 34°23' E 135°12'0 0.0
2017-Apr-20 19:28N 34°23' E 135°12'0 0.0
2017-Apr-20 18:58N 34°23' E 135°12'0 0.0
2017-Apr-20 18:28N 34°23' E 135°12'0 0.0
2017-Apr-20 17:58N 34°23' E 135°12'0 0.0
2017-Apr-20 17:28N 34°23' E 135°12'0 0.0
2017-Apr-20 16:58N 34°23' E 135°12'0 0.0
2017-Apr-20 16:28N 34°23' E 135°12'0 0.0
2017-Apr-20 15:58N 34°23' E 135°12'0 0.0
2017-Apr-20 15:25N 34°23' E 135°12'0 0.0
2017-Apr-20 14:58N 34°23' E 135°12'0 0.0
2017-Apr-20 14:28N 34°23' E 135°12'2 1.8
2017-Apr-20 13:30N 34°25' E 135°11'611.5
2017-Apr-20 13:00N 34°29' E 135°07'611.3
2017-Apr-20 12:30N 34°34' E 135°04'611.2
2017-Apr-20 12:00N 34°36' E 134°57'2 0.1
2017-Apr-19 07:24N 34°36' E 134°55'510.9
2017-Apr-19 06:54N 34°37' E 135°01'511.4
2017-Apr-19 06:30N 34°35' E 135°06'611.6
2017-Apr-19 06:00N 34°30' E 135°09'611.9
2017-Apr-19 05:29N 34°24' E 135°12'2 0.4
2017-Apr-19 00:18N 34°25' E 135°14'0 0.8
2017-Apr-18 23:58N 34°25' E 135°14'2 3.9
2017-Apr-18 23:29N 34°23' E 135°13'0 0.1
2017-Apr-18 22:55N 34°23' E 135°13'0 0.0
2017-Apr-18 22:19N 34°23' E 135°13'0 0.0
2017-Apr-18 21:55N 34°23' E 135°13'0 0.0
2017-Apr-18 21:13N 34°23' E 135°13'0 0.0
2017-Apr-18 20:49N 34°23' E 135°13'0 0.0
2017-Apr-18 19:25N 34°23' E 135°13'0 0.0
2017-Apr-18 18:55N 34°23' E 135°13'0 0.0
2017-Apr-18 18:19N 34°23' E 135°13'0 0.1
2017-Apr-18 17:55N 34°23' E 135°13'0 0.0
2017-Apr-18 17:25N 34°23' E 135°13'0 0.0
2017-Apr-18 16:43N 34°23' E 135°13'  
Track history (hours):
 
Tides and Currents Weather Stations Pressure Air Temp Water Temp Dewpoint Dewpoint Depression Visibility Wind Speed Wind Dir Waves Ship Positions

Houn Maru

Last reported at 2017-Apr-28 16:26 UTC. Time now 2017-Apr-28 18:05 UTC.
Position N 34°32' E 135°20'.

Length 91 m; draft 4.5 m.

Type: Tanker. MMSI: 431101172.

Date/timePositionNaut miles runAvg speedWind from/ knotsBaromVisibWave heightAir tempDewpointWater temp
2017-Apr-28 16:26N 34°32' E 135°20'0 0.1
2017-Apr-28 15:56N 34°32' E 135°20'0 0.0
2017-Apr-28 15:14N 34°32' E 135°20'0 0.0
2017-Apr-28 14:50N 34°32' E 135°20'0 0.0
2017-Apr-28 13:56N 34°32' E 135°20'0 0.0
2017-Apr-28 13:20N 34°32' E 135°20'0 0.0
2017-Apr-28 12:56N 34°32' E 135°20'0 0.0
2017-Apr-28 11:56N 34°32' E 135°20'0 0.0
2017-Apr-28 11:26N 34°32' E 135°20'0 0.0
2017-Apr-28 10:50N 34°32' E 135°20'0 0.0
2017-Apr-28 10:26N 34°32' E 135°20'0 0.1
2017-Apr-28 09:56N 34°32' E 135°20'3 6.8
2017-Apr-28 09:30N 34°30' E 135°17'612.0
2017-Apr-28 09:00N 34°27' E 135°11'3 6.0
2017-Apr-28 08:30N 34°25' E 135°14'0 0.0
2017-Apr-28 03:18N 34°25' E 135°14'0 0.2
2017-Apr-28 02:58N 34°25' E 135°14'2 4.3
2017-Apr-28 02:29N 34°23' E 135°13'0 0.1
2017-Apr-28 01:49N 34°23' E 135°13'0 0.1
2017-Apr-28 01:28N 34°23' E 135°13'0 0.0
2017-Apr-27 23:58N 34°23' E 135°13'0 0.0
2017-Apr-27 23:04N 34°23' E 135°13'0 0.0
2017-Apr-27 22:55N 34°23' E 135°13'0 0.0
2017-Apr-27 22:28N 34°23' E 135°13'0 0.1
2017-Apr-27 21:34N 34°23' E 135°13'0 0.0
2017-Apr-27 21:10N 34°23' E 135°13'0 0.2
2017-Apr-27 20:52N 34°23' E 135°12'0 0.0
2017-Apr-27 20:28N 34°23' E 135°12'0 0.0
2017-Apr-27 19:58N 34°23' E 135°12'0 0.0
2017-Apr-27 19:22N 34°23' E 135°12'0 0.0
2017-Apr-27 18:58N 34°23' E 135°12'0 0.0
2017-Apr-27 18:28N 34°23' E 135°12'0 0.0
2017-Apr-27 17:58N 34°23' E 135°12'0 0.0
2017-Apr-27 17:28N 34°23' E 135°12'0 0.0
2017-Apr-27 16:46N 34°23' E 135°12'0 0.0
2017-Apr-27 15:04N 34°23' E 135°12'0 0.0
2017-Apr-27 14:52N 34°23' E 135°12'2 2.2
2017-Apr-27 13:59N 34°25' E 135°11'611.5
2017-Apr-27 13:30N 34°29' E 135°07'510.4
2017-Apr-27 13:00N 34°34' E 135°04'4 8.0
2017-Apr-27 12:30N 34°37' E 135°01'5 0.2
2017-Apr-26 07:53N 34°36' E 134°54'612.1
2017-Apr-26 07:23N 34°37' E 135°01'4 9.6
2017-Apr-26 07:00N 34°35' E 135°05'510.4
2017-Apr-26 06:30N 34°30' E 135°08'611.9
2017-Apr-26 06:01N 34°25' E 135°11'3 5.0
2017-Apr-26 05:30N 34°25' E 135°14'0 0.0
2017-Apr-26 00:11N 34°25' E 135°14'0 0.6
2017-Apr-25 23:57N 34°25' E 135°14'2 4.1
2017-Apr-25 23:28N 34°23' E 135°13'0 0.0
2017-Apr-25 22:32N 34°23' E 135°13'0 0.0
2017-Apr-25 22:08N 34°23' E 135°13'0 0.0
2017-Apr-25 21:59N 34°23' E 135°13'0 0.0
2017-Apr-25 21:26N 34°23' E 135°13'0 0.0
2017-Apr-25 20:56N 34°23' E 135°13'0 0.0
2017-Apr-25 20:29N 34°23' E 135°13'0 0.1
2017-Apr-25 19:56N 34°23' E 135°12'0 0.0
2017-Apr-25 19:20N 34°23' E 135°12'0 0.0
2017-Apr-25 18:56N 34°23' E 135°12'0 0.0
2017-Apr-25 18:25N 34°23' E 135°12'0 0.1
2017-Apr-25 17:38N 34°23' E 135°12'0 0.1
2017-Apr-25 17:08N 34°23' E 135°13'0 0.0
2017-Apr-25 15:49N 34°23' E 135°12'0 0.0
2017-Apr-25 15:25N 34°23' E 135°12'0 0.2
2017-Apr-25 14:58N 34°23' E 135°13'4 8.1
2017-Apr-25 14:30N 34°26' E 135°10'1111.5
2017-Apr-25 13:30N 34°36' E 135°02'8 0.3
2017-Apr-24 08:57N 34°35' E 134°53'714.4
2017-Apr-24 08:29N 34°37' E 135°01'612.7
2017-Apr-24 08:00N 34°33' E 135°06'612.8
2017-Apr-24 07:30N 34°27' E 135°09'5 8.9
2017-Apr-24 06:59N 34°25' E 135°14'0 0.0
2017-Apr-24 01:44N 34°25' E 135°14'0 1.0
2017-Apr-24 01:31N 34°25' E 135°14'2 3.7
2017-Apr-24 01:01N 34°23' E 135°13'0 0.1
2017-Apr-23 23:28N 34°23' E 135°12'0 0.0
2017-Apr-23 22:43N 34°23' E 135°12'0 0.0
2017-Apr-23 22:22N 34°23' E 135°12'0 0.0
2017-Apr-23 21:55N 34°23' E 135°12'0 0.0
2017-Apr-23 21:25N 34°23' E 135°12'0 0.0
2017-Apr-23 20:49N 34°23' E 135°12'0 0.0
2017-Apr-23 20:28N 34°23' E 135°12'0 0.0
2017-Apr-23 19:58N 34°23' E 135°12'0 0.0
2017-Apr-23 19:28N 34°23' E 135°12'0 0.0
2017-Apr-23 18:31N 34°23' E 135°12'0 0.0
2017-Apr-23 18:25N 34°23' E 135°12'0 0.0
2017-Apr-23 17:49N 34°23' E 135°12'0 0.0
2017-Apr-23 17:19N 34°23' E 135°12'0 0.0
2017-Apr-23 16:49N 34°23' E 135°12'0 0.0
2017-Apr-23 15:46N 34°23' E 135°12'0 0.0
2017-Apr-23 15:19N 34°23' E 135°12'1 3.0
2017-Apr-23 15:00N 34°24' E 135°12'1211.7
2017-Apr-23 14:00N 34°34' E 135°04'612.1
2017-Apr-23 13:28N 34°36' E 134°57'2 0.1
2017-Apr-22 01:55N 34°36' E 134°55'510.6
2017-Apr-22 01:27N 34°37' E 135°01'4 9.8
2017-Apr-22 01:00N 34°36' E 135°06'612.8
2017-Apr-22 00:30N 34°36' E 135°14'612.8
2017-Apr-22 00:00N 34°37' E 135°21'5 9.6
2017-Apr-21 23:29N 34°35' E 135°27'0 0.0
2017-Apr-21 07:22N 34°35' E 135°27'3 8.8
2017-Apr-21 07:00N 34°36' E 135°23'612.4
2017-Apr-21 06:30N 34°32' E 135°18'612.5
2017-Apr-21 06:00N 34°28' E 135°13'3 5.0
2017-Apr-21 05:25N 34°25' E 135°14'0 0.0
2017-Apr-21 00:13N 34°25' E 135°14'0 0.8
2017-Apr-20 23:57N 34°25' E 135°14'2 4.6
2017-Apr-20 23:30N 34°23' E 135°13'0 0.1
2017-Apr-20 22:52N 34°23' E 135°12'0 0.0
2017-Apr-20 22:25N 34°23' E 135°12'0 0.0
2017-Apr-20 21:58N 34°23' E 135°12'0 0.1
2017-Apr-20 21:22N 34°23' E 135°12'0 0.0
2017-Apr-20 20:58N 34°23' E 135°12'0 0.0
2017-Apr-20 19:49N 34°23' E 135°12'0 0.0
2017-Apr-20 19:28N 34°23' E 135°12'0 0.0
2017-Apr-20 18:58N 34°23' E 135°12'0 0.0
2017-Apr-20 18:28N 34°23' E 135°12'0 0.0
2017-Apr-20 17:58N 34°23' E 135°12'0 0.0
2017-Apr-20 17:28N 34°23' E 135°12'0 0.0
2017-Apr-20 16:58N 34°23' E 135°12'0 0.0
2017-Apr-20 16:28N 34°23' E 135°12'0 0.0
2017-Apr-20 15:58N 34°23' E 135°12'0 0.0
2017-Apr-20 15:25N 34°23' E 135°12'0 0.0
2017-Apr-20 14:58N 34°23' E 135°12'0 0.0
2017-Apr-20 14:28N 34°23' E 135°12'2 1.8
2017-Apr-20 13:30N 34°25' E 135°11'611.5
2017-Apr-20 13:00N 34°29' E 135°07'611.3
2017-Apr-20 12:30N 34°34' E 135°04'611.2
2017-Apr-20 12:00N 34°36' E 134°57'2 0.1
2017-Apr-19 07:24N 34°36' E 134°55'510.9
2017-Apr-19 06:54N 34°37' E 135°01'511.4
2017-Apr-19 06:30N 34°35' E 135°06'611.6
2017-Apr-19 06:00N 34°30' E 135°09'611.9
2017-Apr-19 05:29N 34°24' E 135°12'2 0.4
2017-Apr-19 00:18N 34°25' E 135°14'0 0.8
2017-Apr-18 23:58N 34°25' E 135°14'2 3.9
2017-Apr-18 23:29N 34°23' E 135°13'0 0.1
2017-Apr-18 22:55N 34°23' E 135°13'0 0.0
2017-Apr-18 22:19N 34°23' E 135°13'0 0.0
2017-Apr-18 21:55N 34°23' E 135°13'0 0.0
2017-Apr-18 21:13N 34°23' E 135°13'0 0.0
2017-Apr-18 20:49N 34°23' E 135°13'0 0.0
2017-Apr-18 19:25N 34°23' E 135°13'0 0.0
2017-Apr-18 18:55N 34°23' E 135°13'0 0.0
2017-Apr-18 18:19N 34°23' E 135°13'0 0.1
2017-Apr-18 17:55N 34°23' E 135°13'0 0.0
2017-Apr-18 17:25N 34°23' E 135°13'0 0.0
2017-Apr-18 16:43N 34°23' E 135°13'  

Dump ship's entire track history